createdAt,value
2022-12-19T00:00:03.819Z,91
2022-12-19T00:16:03.899Z,91
2022-12-19T00:31:03.747Z,91
2022-12-19T00:46:03.822Z,91
2022-12-19T01:00:03.733Z,91
2022-12-19T01:16:03.867Z,91
2022-12-19T01:31:03.763Z,91
2022-12-19T01:46:03.929Z,91
2022-12-19T02:00:03.723Z,91
2022-12-19T02:16:03.615Z,91
2022-12-19T02:31:07.320Z,91
2022-12-19T02:46:03.821Z,91
2022-12-19T03:00:03.801Z,91
2022-12-19T03:16:03.755Z,91
2022-12-19T03:31:03.896Z,91
2022-12-19T03:46:03.872Z,91
2022-12-19T04:00:03.871Z,90
2022-12-19T04:16:03.904Z,90
2022-12-19T04:31:03.965Z,90
2022-12-19T04:46:03.914Z,90
2022-12-19T05:00:03.936Z,90
2022-12-19T05:16:03.937Z,90
2022-12-19T05:31:03.872Z,90
2022-12-19T05:46:03.596Z,90
2022-12-19T06:00:03.876Z,90
2022-12-19T06:16:03.866Z,90
2022-12-19T06:31:03.867Z,90
2022-12-19T06:46:03.862Z,90
2022-12-19T07:00:03.863Z,90
2022-12-19T07:16:03.586Z,90
2022-12-19T07:31:03.890Z,90
2022-12-19T07:46:04.418Z,90
2022-12-19T08:00:03.842Z,90
2022-12-19T08:16:03.821Z,90
2022-12-19T08:31:03.878Z,90
2022-12-19T08:46:03.871Z,89
2022-12-19T09:00:03.860Z,89
2022-12-19T09:16:03.586Z,89
2022-12-19T09:31:03.629Z,88
2022-12-19T09:46:03.611Z,88
2022-12-19T10:00:03.627Z,87
2022-12-19T10:16:03.634Z,86
2022-12-19T10:31:12.618Z,86
2022-12-19T10:46:03.739Z,85
2022-12-19T11:00:03.729Z,84
2022-12-19T11:21:33.386Z,84
2022-12-19T11:46:03.606Z,82
2022-12-19T12:00:04.983Z,81
2022-12-19T12:28:16.429Z,80
2022-12-19T12:35:54.206Z,81
2022-12-19T12:46:03.729Z,80
2022-12-19T13:00:03.603Z,80
2022-12-19T13:16:03.627Z,80
2022-12-19T13:31:18.619Z,80
2022-12-19T13:46:03.652Z,80
2022-12-19T14:00:03.635Z,80
2022-12-19T14:16:03.670Z,80
2022-12-19T14:31:03.666Z,81
2022-12-19T14:54:22.567Z,82
2022-12-19T15:00:03.630Z,83
2022-12-19T15:16:03.846Z,84
2022-12-19T15:31:03.933Z,84
2022-12-19T15:46:03.655Z,85
2022-12-19T16:00:03.964Z,92
2022-12-19T16:16:06.523Z,87
2022-12-19T16:31:03.943Z,87
2022-12-19T16:46:03.950Z,87
2022-12-19T17:00:03.923Z,88
2022-12-19T17:16:03.989Z,88
2022-12-19T17:31:03.823Z,89
2022-12-19T17:46:04.131Z,90
2022-12-19T18:00:03.838Z,90
2022-12-19T18:16:01.007Z,90
2022-12-19T18:31:04.101Z,90
2022-12-19T18:46:03.966Z,90
2022-12-19T19:00:03.735Z,90
2022-12-19T19:16:03.970Z,90
2022-12-19T19:31:04.052Z,91
2022-12-19T19:46:03.712Z,91
2022-12-19T20:00:03.962Z,91
2022-12-19T20:16:03.969Z,91
2022-12-19T20:31:04.019Z,91
2022-12-19T20:46:04.160Z,91
2022-12-19T21:00:03.970Z,92
2022-12-19T21:16:03.989Z,92
2022-12-19T21:31:04.048Z,92
2022-12-19T21:46:03.977Z,92
2022-12-19T22:00:04.000Z,92
2022-12-19T22:16:03.858Z,93
2022-12-19T22:31:04.095Z,93
2022-12-19T22:46:04.830Z,93
2022-12-19T23:00:04.049Z,93
2022-12-19T23:16:04.105Z,93
2022-12-19T23:31:04.007Z,93
2022-12-19T23:46:04.075Z,93
